sensor_id;sensor_type;location;lat;lon;timestamp;temperature;humidity
57857;DHT22;43683;48.650;9.290;2024-01-07T00:01:15;4.70;95.90
57857;DHT22;43683;48.650;9.290;2024-01-07T00:03:41;4.70;95.90
57857;DHT22;43683;48.650;9.290;2024-01-07T00:06:08;4.70;95.90
57857;DHT22;43683;48.650;9.290;2024-01-07T00:08:33;4.70;95.80
57857;DHT22;43683;48.650;9.290;2024-01-07T00:10:59;4.70;95.90
57857;DHT22;43683;48.650;9.290;2024-01-07T00:13:24;4.70;95.90
57857;DHT22;43683;48.650;9.290;2024-01-07T00:15:50;4.70;95.90
57857;DHT22;43683;48.650;9.290;2024-01-07T00:18:15;4.70;96.00
57857;DHT22;43683;48.650;9.290;2024-01-07T00:20:41;4.60;96.00
57857;DHT22;43683;48.650;9.290;2024-01-07T00:23:06;4.60;96.00
57857;DHT22;43683;48.650;9.290;2024-01-07T00:25:32;4.70;96.00
57857;DHT22;43683;48.650;9.290;2024-01-07T00:27:57;4.70;96.00
57857;DHT22;43683;48.650;9.290;2024-01-07T00:30:23;4.60;96.00
57857;DHT22;43683;48.650;9.290;2024-01-07T00:32:48;4.60;96.00
57857;DHT22;43683;48.650;9.290;2024-01-07T00:35:16;4.70;96.30
57857;DHT22;43683;48.650;9.290;2024-01-07T00:37:42;4.70;96.00
57857;DHT22;43683;48.650;9.290;2024-01-07T00:40:08;4.70;95.90
57857;DHT22;43683;48.650;9.290;2024-01-07T00:42:33;4.70;95.90
57857;DHT22;43683;48.650;9.290;2024-01-07T00:44:59;4.80;95.90
57857;DHT22;43683;48.650;9.290;2024-01-07T00:47:25;4.80;95.90
57857;DHT22;43683;48.650;9.290;2024-01-07T00:49:50;4.80;95.90
57857;DHT22;43683;48.650;9.290;2024-01-07T00:52:16;4.80;95.80
57857;DHT22;43683;48.650;9.290;2024-01-07T00:54:41;4.80;95.80
57857;DHT22;43683;48.650;9.290;2024-01-07T00:57:07;4.90;95.80
57857;DHT22;43683;48.650;9.290;2024-01-07T00:59:32;4.80;95.80
57857;DHT22;43683;48.650;9.290;2024-01-07T01:01:58;4.90;95.80
57857;DHT22;43683;48.650;9.290;2024-01-07T01:04:23;4.90;95.80
57857;DHT22;43683;48.650;9.290;2024-01-07T01:06:49;4.80;95.80
57857;DHT22;43683;48.650;9.290;2024-01-07T01:09:14;4.90;95.80
57857;DHT22;43683;48.650;9.290;2024-01-07T01:11:40;4.90;95.80
57857;DHT22;43683;48.650;9.290;2024-01-07T01:14:05;4.90;95.80
57857;DHT22;43683;48.650;9.290;2024-01-07T01:16:31;4.90;95.80
57857;DHT22;43683;48.650;9.290;2024-01-07T01:18:56;4.80;95.80
57857;DHT22;43683;48.650;9.290;2024-01-07T01:21:22;4.90;95.80
57857;DHT22;43683;48.650;9.290;2024-01-07T01:23:48;4.90;95.80
57857;DHT22;43683;48.650;9.290;2024-01-07T01:26:14;4.80;95.80
57857;DHT22;43683;48.650;9.290;2024-01-07T01:28:40;4.80;95.80
57857;DHT22;43683;48.650;9.290;2024-01-07T01:31:06;4.80;95.80
57857;DHT22;43683;48.650;9.290;2024-01-07T01:33:31;4.80;95.80
57857;DHT22;43683;48.650;9.290;2024-01-07T01:35:57;4.80;95.80
57857;DHT22;43683;48.650;9.290;2024-01-07T01:38:22;4.80;95.90
57857;DHT22;43683;48.650;9.290;2024-01-07T01:40:52;4.80;95.90
57857;DHT22;43683;48.650;9.290;2024-01-07T01:43:28;4.80;95.90
57857;DHT22;43683;48.650;9.290;2024-01-07T01:45:55;4.80;96.00
57857;DHT22;43683;48.650;9.290;2024-01-07T01:48:24;4.80;95.90
57857;DHT22;43683;48.650;9.290;2024-01-07T01:50:50;4.80;96.00
57857;DHT22;43683;48.650;9.290;2024-01-07T01:53:16;4.70;96.00
57857;DHT22;43683;48.650;9.290;2024-01-07T01:55:42;4.70;96.00
57857;DHT22;43683;48.650;9.290;2024-01-07T01:58:09;4.70;96.30
57857;DHT22;43683;48.650;9.290;2024-01-07T02:00:35;4.70;96.40
57857;DHT22;43683;48.650;9.290;2024-01-07T02:03:00;4.70;96.10
57857;DHT22;43683;48.650;9.290;2024-01-07T02:05:26;4.70;96.00
57857;DHT22;43683;48.650;9.290;2024-01-07T02:07:53;4.70;96.00
57857;DHT22;43683;48.650;9.290;2024-01-07T02:10:20;4.70;96.00
57857;DHT22;43683;48.650;9.290;2024-01-07T02:12:46;4.60;96.00
57857;DHT22;43683;48.650;9.290;2024-01-07T02:15:11;4.70;96.00
57857;DHT22;43683;48.650;9.290;2024-01-07T02:17:37;4.70;96.00
57857;DHT22;43683;48.650;9.290;2024-01-07T02:20:02;4.70;96.00
57857;DHT22;43683;48.650;9.290;2024-01-07T02:22:28;4.70;96.00
57857;DHT22;43683;48.650;9.290;2024-01-07T02:24:53;4.70;96.00
57857;DHT22;43683;48.650;9.290;2024-01-07T02:27:19;4.70;95.90
57857;DHT22;43683;48.650;9.290;2024-01-07T02:29:45;4.80;95.90
57857;DHT22;43683;48.650;9.290;2024-01-07T02:32:10;4.80;95.90
57857;DHT22;43683;48.650;9.290;2024-01-07T02:34:36;4.80;95.90
57857;DHT22;43683;48.650;9.290;2024-01-07T02:37:01;4.80;95.90
57857;DHT22;43683;48.650;9.290;2024-01-07T02:39:27;4.80;95.90
57857;DHT22;43683;48.650;9.290;2024-01-07T02:41:52;4.80;95.90
57857;DHT22;43683;48.650;9.290;2024-01-07T02:44:18;4.80;95.90
57857;DHT22;43683;48.650;9.290;2024-01-07T02:46:43;4.80;95.80
57857;DHT22;43683;48.650;9.290;2024-01-07T02:49:09;4.80;95.80
57857;DHT22;43683;48.650;9.290;2024-01-07T02:51:34;4.80;95.80
57857;DHT22;43683;48.650;9.290;2024-01-07T02:54:00;4.80;95.80
57857;DHT22;43683;48.650;9.290;2024-01-07T02:56:25;4.80;95.80
57857;DHT22;43683;48.650;9.290;2024-01-07T02:58:51;4.80;95.80
57857;DHT22;43683;48.650;9.290;2024-01-07T03:01:16;4.80;95.80
57857;DHT22;43683;48.650;9.290;2024-01-07T03:03:42;4.70;95.90
57857;DHT22;43683;48.650;9.290;2024-01-07T03:06:07;4.70;95.90
57857;DHT22;43683;48.650;9.290;2024-01-07T03:08:34;4.70;96.00
57857;DHT22;43683;48.650;9.290;2024-01-07T03:11:04;4.60;96.00
57857;DHT22;43683;48.650;9.290;2024-01-07T03:13:30;4.60;96.10
57857;DHT22;43683;48.650;9.290;2024-01-07T03:15:56;4.60;96.10
57857;DHT22;43683;48.650;9.290;2024-01-07T03:18:21;4.50;96.10
57857;DHT22;43683;48.650;9.290;2024-01-07T03:20:47;4.50;96.10
57857;DHT22;43683;48.650;9.290;2024-01-07T03:23:12;4.50;96.10
57857;DHT22;43683;48.650;9.290;2024-01-07T03:25:38;4.50;96.10
57857;DHT22;43683;48.650;9.290;2024-01-07T03:28:03;4.50;96.10
57857;DHT22;43683;48.650;9.290;2024-01-07T03:30:29;4.50;96.10
57857;DHT22;43683;48.650;9.290;2024-01-07T03:32:54;4.50;96.10
57857;DHT22;43683;48.650;9.290;2024-01-07T03:35:20;4.50;96.10
57857;DHT22;43683;48.650;9.290;2024-01-07T03:37:47;4.50;96.10
57857;DHT22;43683;48.650;9.290;2024-01-07T03:40:12;4.50;96.30
57857;DHT22;43683;48.650;9.290;2024-01-07T03:42:38;4.50;96.10
57857;DHT22;43683;48.650;9.290;2024-01-07T03:45:04;4.60;96.00
57857;DHT22;43683;48.650;9.290;2024-01-07T03:47:30;4.50;96.00
57857;DHT22;43683;48.650;9.290;2024-01-07T03:49:57;4.50;96.00
57857;DHT22;43683;48.650;9.290;2024-01-07T03:52:22;4.50;96.10
57857;DHT22;43683;48.650;9.290;2024-01-07T03:54:48;4.40;96.20
57857;DHT22;43683;48.650;9.290;2024-01-07T03:57:13;4.30;96.30
57857;DHT22;43683;48.650;9.290;2024-01-07T03:59:39;4.20;96.40
57857;DHT22;43683;48.650;9.290;2024-01-07T04:02:04;4.20;96.60
57857;DHT22;43683;48.650;9.290;2024-01-07T04:04:30;4.10;96.60
57857;DHT22;43683;48.650;9.290;2024-01-07T04:06:56;4.00;96.70
57857;DHT22;43683;48.650;9.290;2024-01-07T04:09:21;4.00;96.80
57857;DHT22;43683;48.650;9.290;2024-01-07T04:11:47;3.90;96.80
57857;DHT22;43683;48.650;9.290;2024-01-07T04:14:14;4.00;96.90
57857;DHT22;43683;48.650;9.290;2024-01-07T04:16:40;4.00;96.80
57857;DHT22;43683;48.650;9.290;2024-01-07T04:19:06;4.00;96.70
57857;DHT22;43683;48.650;9.290;2024-01-07T04:21:31;4.00;96.70
57857;DHT22;43683;48.650;9.290;2024-01-07T04:23:57;4.00;96.70
57857;DHT22;43683;48.650;9.290;2024-01-07T04:26:22;4.00;96.70
57857;DHT22;43683;48.650;9.290;2024-01-07T04:28:48;4.00;96.70
57857;DHT22;43683;48.650;9.290;2024-01-07T04:31:13;4.00;96.70
57857;DHT22;43683;48.650;9.290;2024-01-07T04:33:39;4.10;96.70
57857;DHT22;43683;48.650;9.290;2024-01-07T04:36:05;4.10;96.60
57857;DHT22;43683;48.650;9.290;2024-01-07T04:38:30;4.10;96.50
57857;DHT22;43683;48.650;9.290;2024-01-07T04:40:56;4.10;96.50
57857;DHT22;43683;48.650;9.290;2024-01-07T04:43:21;4.20;96.50
57857;DHT22;43683;48.650;9.290;2024-01-07T04:45:47;4.10;96.50
57857;DHT22;43683;48.650;9.290;2024-01-07T04:48:13;4.10;96.50
57857;DHT22;43683;48.650;9.290;2024-01-07T04:50:42;4.10;96.60
57857;DHT22;43683;48.650;9.290;2024-01-07T04:53:08;4.10;96.60
57857;DHT22;43683;48.650;9.290;2024-01-07T04:55:34;4.00;96.60
57857;DHT22;43683;48.650;9.290;2024-01-07T04:57:59;4.00;96.60
57857;DHT22;43683;48.650;9.290;2024-01-07T05:00:25;4.00;96.70
57857;DHT22;43683;48.650;9.290;2024-01-07T05:02:51;4.00;97.00
57857;DHT22;43683;48.650;9.290;2024-01-07T05:05:16;4.00;96.60
57857;DHT22;43683;48.650;9.290;2024-01-07T05:07:42;4.00;96.60
57857;DHT22;43683;48.650;9.290;2024-01-07T05:10:07;4.00;96.60
57857;DHT22;43683;48.650;9.290;2024-01-07T05:12:33;3.90;96.60
57857;DHT22;43683;48.650;9.290;2024-01-07T05:14:59;3.90;96.70
57857;DHT22;43683;48.650;9.290;2024-01-07T05:17:24;3.90;96.70
57857;DHT22;43683;48.650;9.290;2024-01-07T05:19:50;3.90;96.70
57857;DHT22;43683;48.650;9.290;2024-01-07T05:22:15;3.90;96.70
57857;DHT22;43683;48.650;9.290;2024-01-07T05:24:41;3.80;96.70
57857;DHT22;43683;48.650;9.290;2024-01-07T05:27:06;3.80;96.70
57857;DHT22;43683;48.650;9.290;2024-01-07T05:29:32;3.80;96.70
57857;DHT22;43683;48.650;9.290;2024-01-07T05:31:59;3.70;96.70
57857;DHT22;43683;48.650;9.290;2024-01-07T05:34:26;3.70;96.70
57857;DHT22;43683;48.650;9.290;2024-01-07T05:36:51;3.70;96.70
57857;DHT22;43683;48.650;9.290;2024-01-07T05:39:17;3.70;96.70
57857;DHT22;43683;48.650;9.290;2024-01-07T05:41:43;3.70;96.70
57857;DHT22;43683;48.650;9.290;2024-01-07T05:44:09;3.70;96.80
57857;DHT22;43683;48.650;9.290;2024-01-07T05:46:39;3.70;96.70
57857;DHT22;43683;48.650;9.290;2024-01-07T05:49:08;3.70;96.70
57857;DHT22;43683;48.650;9.290;2024-01-07T05:51:33;3.60;96.70
57857;DHT22;43683;48.650;9.290;2024-01-07T05:53:59;3.70;96.70
57857;DHT22;43683;48.650;9.290;2024-01-07T05:56:24;3.60;96.70
57857;DHT22;43683;48.650;9.290;2024-01-07T05:58:51;3.60;96.70
57857;DHT22;43683;48.650;9.290;2024-01-07T06:01:20;3.60;96.70
57857;DHT22;43683;48.650;9.290;2024-01-07T06:03:46;3.60;96.70
57857;DHT22;43683;48.650;9.290;2024-01-07T06:06:13;3.60;96.70
57857;DHT22;43683;48.650;9.290;2024-01-07T06:08:39;3.60;96.70
57857;DHT22;43683;48.650;9.290;2024-01-07T06:11:04;3.60;96.70
57857;DHT22;43683;48.650;9.290;2024-01-07T06:13:30;3.70;96.70
57857;DHT22;43683;48.650;9.290;2024-01-07T06:15:55;3.60;97.00
57857;DHT22;43683;48.650;9.290;2024-01-07T06:18:21;3.60;96.70
57857;DHT22;43683;48.650;9.290;2024-01-07T06:20:46;3.60;96.70
57857;DHT22;43683;48.650;9.290;2024-01-07T06:23:12;3.70;96.70
57857;DHT22;43683;48.650;9.290;2024-01-07T06:25:38;3.60;96.70
57857;DHT22;43683;48.650;9.290;2024-01-07T06:28:04;3.70;96.70
57857;DHT22;43683;48.650;9.290;2024-01-07T06:30:30;3.70;96.70
57857;DHT22;43683;48.650;9.290;2024-01-07T06:32:55;3.70;96.70
57857;DHT22;43683;48.650;9.290;2024-01-07T06:35:21;3.70;96.70
57857;DHT22;43683;48.650;9.290;2024-01-07T06:37:47;3.70;96.70
57857;DHT22;43683;48.650;9.290;2024-01-07T06:40:12;3.70;96.70
57857;DHT22;43683;48.650;9.290;2024-01-07T06:42:38;3.70;96.80
57857;DHT22;43683;48.650;9.290;2024-01-07T06:45:04;3.60;96.70
57857;DHT22;43683;48.650;9.290;2024-01-07T06:47:30;3.60;96.80
57857;DHT22;43683;48.650;9.290;2024-01-07T06:49:55;3.60;96.80
57857;DHT22;43683;48.650;9.290;2024-01-07T06:52:22;3.60;96.80
57857;DHT22;43683;48.650;9.290;2024-01-07T06:54:47;3.60;96.80
57857;DHT22;43683;48.650;9.290;2024-01-07T06:57:13;3.60;96.90
57857;DHT22;43683;48.650;9.290;2024-01-07T06:59:38;3.70;96.80
57857;DHT22;43683;48.650;9.290;2024-01-07T07:02:04;3.70;96.80
57857;DHT22;43683;48.650;9.290;2024-01-07T07:04:30;3.70;96.80
57857;DHT22;43683;48.650;9.290;2024-01-07T07:06:55;3.70;96.80
57857;DHT22;43683;48.650;9.290;2024-01-07T07:09:23;3.70;96.80
57857;DHT22;43683;48.650;9.290;2024-01-07T07:11:48;3.70;96.80
57857;DHT22;43683;48.650;9.290;2024-01-07T07:14:14;3.70;96.70
57857;DHT22;43683;48.650;9.290;2024-01-07T07:16:39;3.80;96.80
57857;DHT22;43683;48.650;9.290;2024-01-07T07:19:05;3.80;96.80
57857;DHT22;43683;48.650;9.290;2024-01-07T07:21:31;3.80;96.80
57857;DHT22;43683;48.650;9.290;2024-01-07T07:23:56;3.70;96.80
57857;DHT22;43683;48.650;9.290;2024-01-07T07:26:22;3.70;96.80
57857;DHT22;43683;48.650;9.290;2024-01-07T07:28:48;3.70;96.80
57857;DHT22;43683;48.650;9.290;2024-01-07T07:31:13;3.70;96.90
57857;DHT22;43683;48.650;9.290;2024-01-07T07:33:39;3.60;97.20
57857;DHT22;43683;48.650;9.290;2024-01-07T07:36:06;3.60;96.90
57857;DHT22;43683;48.650;9.290;2024-01-07T07:38:32;3.60;96.90
57857;DHT22;43683;48.650;9.290;2024-01-07T07:41:01;3.60;96.90
57857;DHT22;43683;48.650;9.290;2024-01-07T07:43:27;3.60;96.90
57857;DHT22;43683;48.650;9.290;2024-01-07T07:45:52;3.60;96.90
57857;DHT22;43683;48.650;9.290;2024-01-07T07:48:22;3.70;97.00
57857;DHT22;43683;48.650;9.290;2024-01-07T07:50:48;3.70;96.90
57857;DHT22;43683;48.650;9.290;2024-01-07T07:53:14;3.60;96.90
57857;DHT22;43683;48.650;9.290;2024-01-07T07:55:40;3.70;96.90
57857;DHT22;43683;48.650;9.290;2024-01-07T07:58:06;3.60;96.90
57857;DHT22;43683;48.650;9.290;2024-01-07T08:00:31;3.60;96.90
57857;DHT22;43683;48.650;9.290;2024-01-07T08:02:57;3.60;96.90
57857;DHT22;43683;48.650;9.290;2024-01-07T08:05:22;3.60;96.90
57857;DHT22;43683;48.650;9.290;2024-01-07T08:07:48;3.60;96.90
57857;DHT22;43683;48.650;9.290;2024-01-07T08:10:13;3.60;96.90
57857;DHT22;43683;48.650;9.290;2024-01-07T08:12:39;3.60;97.00
57857;DHT22;43683;48.650;9.290;2024-01-07T08:15:05;3.60;97.00
57857;DHT22;43683;48.650;9.290;2024-01-07T08:17:31;3.50;96.90
57857;DHT22;43683;48.650;9.290;2024-01-07T08:19:57;3.50;97.00
57857;DHT22;43683;48.650;9.290;2024-01-07T08:22:22;3.40;97.00
57857;DHT22;43683;48.650;9.290;2024-01-07T08:24:48;3.40;97.00
57857;DHT22;43683;48.650;9.290;2024-01-07T08:27:13;3.40;97.00
57857;DHT22;43683;48.650;9.290;2024-01-07T08:29:39;3.50;96.90
57857;DHT22;43683;48.650;9.290;2024-01-07T08:32:04;3.50;96.90
57857;DHT22;43683;48.650;9.290;2024-01-07T08:34:30;3.50;96.80
57857;DHT22;43683;48.650;9.290;2024-01-07T08:36:56;3.50;96.90
57857;DHT22;43683;48.650;9.290;2024-01-07T08:39:21;3.40;96.80
57857;DHT22;43683;48.650;9.290;2024-01-07T08:41:47;3.40;96.80
57857;DHT22;43683;48.650;9.290;2024-01-07T08:44:12;3.40;96.90
57857;DHT22;43683;48.650;9.290;2024-01-07T08:46:38;3.40;96.90
57857;DHT22;43683;48.650;9.290;2024-01-07T08:49:03;3.30;96.90
57857;DHT22;43683;48.650;9.290;2024-01-07T08:51:29;3.30;97.00
57857;DHT22;43683;48.650;9.290;2024-01-07T08:53:55;3.30;96.90
57857;DHT22;43683;48.650;9.290;2024-01-07T08:56:22;3.40;96.50
57857;DHT22;43683;48.650;9.290;2024-01-07T08:58:48;3.50;96.20
57857;DHT22;43683;48.650;9.290;2024-01-07T09:01:14;3.60;95.90
57857;DHT22;43683;48.650;9.290;2024-01-07T09:03:39;3.60;95.80
57857;DHT22;43683;48.650;9.290;2024-01-07T09:06:05;3.60;95.60
57857;DHT22;43683;48.650;9.290;2024-01-07T09:08:31;3.60;95.40
57857;DHT22;43683;48.650;9.290;2024-01-07T09:11:04;3.60;95.20
57857;DHT22;43683;48.650;9.290;2024-01-07T09:13:32;3.70;95.00
57857;DHT22;43683;48.650;9.290;2024-01-07T09:15:58;3.70;94.90
57857;DHT22;43683;48.650;9.290;2024-01-07T09:18:23;3.70;94.80
57857;DHT22;43683;48.650;9.290;2024-01-07T09:20:49;3.70;94.70
57857;DHT22;43683;48.650;9.290;2024-01-07T09:23:14;3.70;94.60
57857;DHT22;43683;48.650;9.290;2024-01-07T09:25:42;3.70;94.50
57857;DHT22;43683;48.650;9.290;2024-01-07T09:28:08;3.70;94.40
57857;DHT22;43683;48.650;9.290;2024-01-07T09:30:34;3.80;94.40
57857;DHT22;43683;48.650;9.290;2024-01-07T09:32:59;3.80;94.30
57857;DHT22;43683;48.650;9.290;2024-01-07T09:35:25;3.90;94.10
57857;DHT22;43683;48.650;9.290;2024-01-07T09:37:50;3.90;94.00
57857;DHT22;43683;48.650;9.290;2024-01-07T09:40:17;3.90;94.00
57857;DHT22;43683;48.650;9.290;2024-01-07T09:42:46;3.90;93.90
57857;DHT22;43683;48.650;9.290;2024-01-07T09:45:13;4.00;93.80
57857;DHT22;43683;48.650;9.290;2024-01-07T09:47:44;3.90;93.80
57857;DHT22;43683;48.650;9.290;2024-01-07T09:50:11;3.90;93.70
57857;DHT22;43683;48.650;9.290;2024-01-07T09:52:38;3.90;93.60
57857;DHT22;43683;48.650;9.290;2024-01-07T09:55:08;3.90;93.60
57857;DHT22;43683;48.650;9.290;2024-01-07T09:57:34;3.90;93.50
57857;DHT22;43683;48.650;9.290;2024-01-07T10:00:00;3.90;93.40
57857;DHT22;43683;48.650;9.290;2024-01-07T10:02:26;3.80;93.30
57857;DHT22;43683;48.650;9.290;2024-01-07T10:04:52;3.70;93.40
57857;DHT22;43683;48.650;9.290;2024-01-07T10:07:17;3.70;93.50
57857;DHT22;43683;48.650;9.290;2024-01-07T10:09:43;3.60;93.50
57857;DHT22;43683;48.650;9.290;2024-01-07T10:12:09;3.50;93.50
57857;DHT22;43683;48.650;9.290;2024-01-07T10:14:35;3.50;93.60
57857;DHT22;43683;48.650;9.290;2024-01-07T10:17:00;3.30;93.50
57857;DHT22;43683;48.650;9.290;2024-01-07T10:19:26;3.30;93.50
57857;DHT22;43683;48.650;9.290;2024-01-07T10:22:03;3.30;93.50
57857;DHT22;43683;48.650;9.290;2024-01-07T10:24:36;3.30;93.50
57857;DHT22;43683;48.650;9.290;2024-01-07T10:27:06;3.30;93.50
57857;DHT22;43683;48.650;9.290;2024-01-07T10:29:32;3.30;93.40
57857;DHT22;43683;48.650;9.290;2024-01-07T10:31:59;3.20;93.30
57857;DHT22;43683;48.650;9.290;2024-01-07T10:34:25;3.20;93.30
57857;DHT22;43683;48.650;9.290;2024-01-07T10:36:54;3.20;93.30
57857;DHT22;43683;48.650;9.290;2024-01-07T10:39:21;3.20;93.30
57857;DHT22;43683;48.650;9.290;2024-01-07T10:41:47;3.20;93.30
57857;DHT22;43683;48.650;9.290;2024-01-07T10:44:14;3.20;93.30
57857;DHT22;43683;48.650;9.290;2024-01-07T10:46:40;3.20;93.30
57857;DHT22;43683;48.650;9.290;2024-01-07T10:49:17;3.20;93.30
57857;DHT22;43683;48.650;9.290;2024-01-07T10:51:44;3.20;93.20
57857;DHT22;43683;48.650;9.290;2024-01-07T10:54:10;3.20;93.30
57857;DHT22;43683;48.650;9.290;2024-01-07T10:56:44;3.20;93.20
57857;DHT22;43683;48.650;9.290;2024-01-07T10:59:10;3.20;93.20
57857;DHT22;43683;48.650;9.290;2024-01-07T11:01:36;3.10;93.10
57857;DHT22;43683;48.650;9.290;2024-01-07T11:04:31;3.10;93.20
57857;DHT22;43683;48.650;9.290;2024-01-07T11:07:09;3.00;93.10
57857;DHT22;43683;48.650;9.290;2024-01-07T11:09:43;3.00;93.20
57857;DHT22;43683;48.650;9.290;2024-01-07T11:12:14;3.00;93.20
57857;DHT22;43683;48.650;9.290;2024-01-07T11:14:41;3.00;93.20
57857;DHT22;43683;48.650;9.290;2024-01-07T11:17:11;3.00;93.20
57857;DHT22;43683;48.650;9.290;2024-01-07T11:19:36;3.00;93.20
57857;DHT22;43683;48.650;9.290;2024-01-07T11:22:24;2.90;93.10
57857;DHT22;43683;48.650;9.290;2024-01-07T11:24:54;2.90;93.10
57857;DHT22;43683;48.650;9.290;2024-01-07T11:27:22;2.90;93.10
57857;DHT22;43683;48.650;9.290;2024-01-07T11:30:05;2.90;93.00
57857;DHT22;43683;48.650;9.290;2024-01-07T11:32:33;3.00;92.90
57857;DHT22;43683;48.650;9.290;2024-01-07T11:35:00;3.00;92.90
57857;DHT22;43683;48.650;9.290;2024-01-07T11:37:25;3.10;92.90
57857;DHT22;43683;48.650;9.290;2024-01-07T11:39:57;3.10;92.80
57857;DHT22;43683;48.650;9.290;2024-01-07T11:42:25;3.10;92.70
57857;DHT22;43683;48.650;9.290;2024-01-07T11:44:55;3.10;92.70
57857;DHT22;43683;48.650;9.290;2024-01-07T11:47:22;3.10;92.70
57857;DHT22;43683;48.650;9.290;2024-01-07T11:49:48;3.10;92.70
57857;DHT22;43683;48.650;9.290;2024-01-07T11:52:17;3.10;92.70
57857;DHT22;43683;48.650;9.290;2024-01-07T11:54:43;3.10;92.60
57857;DHT22;43683;48.650;9.290;2024-01-07T11:57:10;3.10;92.50
57857;DHT22;43683;48.650;9.290;2024-01-07T11:59:36;3.10;92.50
57857;DHT22;43683;48.650;9.290;2024-01-07T12:02:02;3.10;92.80
57857;DHT22;43683;48.650;9.290;2024-01-07T12:04:30;3.10;92.50
57857;DHT22;43683;48.650;9.290;2024-01-07T12:06:56;3.10;92.40
57857;DHT22;43683;48.650;9.290;2024-01-07T12:09:21;3.10;92.30
57857;DHT22;43683;48.650;9.290;2024-01-07T12:11:47;3.10;92.30
57857;DHT22;43683;48.650;9.290;2024-01-07T12:14:14;3.10;92.30
57857;DHT22;43683;48.650;9.290;2024-01-07T12:16:39;3.10;92.30
57857;DHT22;43683;48.650;9.290;2024-01-07T12:19:05;3.00;92.20
57857;DHT22;43683;48.650;9.290;2024-01-07T12:21:30;3.00;92.20
57857;DHT22;43683;48.650;9.290;2024-01-07T12:23:57;2.90;92.20
57857;DHT22;43683;48.650;9.290;2024-01-07T12:26:27;3.00;92.20
57857;DHT22;43683;48.650;9.290;2024-01-07T12:28:54;3.00;92.10
57857;DHT22;43683;48.650;9.290;2024-01-07T12:31:26;3.00;92.10
57857;DHT22;43683;48.650;9.290;2024-01-07T12:33:52;2.90;92.00
57857;DHT22;43683;48.650;9.290;2024-01-07T12:36:22;2.90;92.00
57857;DHT22;43683;48.650;9.290;2024-01-07T12:38:48;2.80;92.00
57857;DHT22;43683;48.650;9.290;2024-01-07T12:41:13;2.80;92.00
57857;DHT22;43683;48.650;9.290;2024-01-07T12:43:39;2.80;91.90
57857;DHT22;43683;48.650;9.290;2024-01-07T12:46:05;2.70;91.80
57857;DHT22;43683;48.650;9.290;2024-01-07T12:48:31;2.70;91.90
57857;DHT22;43683;48.650;9.290;2024-01-07T12:50:57;2.70;91.90
57857;DHT22;43683;48.650;9.290;2024-01-07T12:53:23;2.70;91.80
57857;DHT22;43683;48.650;9.290;2024-01-07T12:55:49;2.60;91.80
57857;DHT22;43683;48.650;9.290;2024-01-07T12:58:14;2.60;91.80
57857;DHT22;43683;48.650;9.290;2024-01-07T13:00:42;2.60;91.80
57857;DHT22;43683;48.650;9.290;2024-01-07T13:03:09;2.50;91.70
57857;DHT22;43683;48.650;9.290;2024-01-07T13:05:39;2.50;91.70
57857;DHT22;43683;48.650;9.290;2024-01-07T13:08:07;2.40;91.70
57857;DHT22;43683;48.650;9.290;2024-01-07T13:10:32;2.40;91.70
57857;DHT22;43683;48.650;9.290;2024-01-07T13:12:59;2.50;91.70
57857;DHT22;43683;48.650;9.290;2024-01-07T13:15:24;2.50;91.70
57857;DHT22;43683;48.650;9.290;2024-01-07T13:17:50;2.50;91.70
57857;DHT22;43683;48.650;9.290;2024-01-07T13:20:16;2.40;91.60
57857;DHT22;43683;48.650;9.290;2024-01-07T13:22:45;2.40;91.60
57857;DHT22;43683;48.650;9.290;2024-01-07T13:25:11;2.40;91.60
57857;DHT22;43683;48.650;9.290;2024-01-07T13:27:37;2.40;91.60
57857;DHT22;43683;48.650;9.290;2024-01-07T13:30:04;2.40;91.60
57857;DHT22;43683;48.650;9.290;2024-01-07T13:32:30;2.40;91.50
57857;DHT22;43683;48.650;9.290;2024-01-07T13:34:55;2.30;91.50
57857;DHT22;43683;48.650;9.290;2024-01-07T13:37:21;2.30;91.60
57857;DHT22;43683;48.650;9.290;2024-01-07T13:39:47;2.30;91.60
57857;DHT22;43683;48.650;9.290;2024-01-07T13:42:14;2.30;91.60
57857;DHT22;43683;48.650;9.290;2024-01-07T13:44:40;2.20;91.60
57857;DHT22;43683;48.650;9.290;2024-01-07T13:47:15;2.10;91.60
57857;DHT22;43683;48.650;9.290;2024-01-07T13:49:42;2.10;91.70
57857;DHT22;43683;48.650;9.290;2024-01-07T13:52:10;2.00;91.70
57857;DHT22;43683;48.650;9.290;2024-01-07T13:54:36;2.00;91.70
57857;DHT22;43683;48.650;9.290;2024-01-07T13:57:03;2.00;91.70
57857;DHT22;43683;48.650;9.290;2024-01-07T13:59:28;1.90;91.70
57857;DHT22;43683;48.650;9.290;2024-01-07T14:01:54;1.90;91.70
57857;DHT22;43683;48.650;9.290;2024-01-07T14:04:19;1.90;91.80
57857;DHT22;43683;48.650;9.290;2024-01-07T14:06:45;1.80;91.80
57857;DHT22;43683;48.650;9.290;2024-01-07T14:09:12;1.70;92.20
57857;DHT22;43683;48.650;9.290;2024-01-07T14:11:37;1.70;91.90
57857;DHT22;43683;48.650;9.290;2024-01-07T14:14:03;1.70;91.90
57857;DHT22;43683;48.650;9.290;2024-01-07T14:16:29;1.60;92.00
57857;DHT22;43683;48.650;9.290;2024-01-07T14:18:55;1.60;92.00
57857;DHT22;43683;48.650;9.290;2024-01-07T14:21:20;1.50;92.00
57857;DHT22;43683;48.650;9.290;2024-01-07T14:23:47;1.50;92.10
57857;DHT22;43683;48.650;9.290;2024-01-07T14:26:12;1.40;92.10
57857;DHT22;43683;48.650;9.290;2024-01-07T14:28:38;1.40;92.20
57857;DHT22;43683;48.650;9.290;2024-01-07T14:31:03;1.40;92.20
57857;DHT22;43683;48.650;9.290;2024-01-07T14:33:29;1.30;92.20
57857;DHT22;43683;48.650;9.290;2024-01-07T14:35:55;1.30;92.30
57857;DHT22;43683;48.650;9.290;2024-01-07T14:38:20;1.30;92.30
57857;DHT22;43683;48.650;9.290;2024-01-07T14:40:47;1.30;92.40
57857;DHT22;43683;48.650;9.290;2024-01-07T14:43:13;1.30;92.40
57857;DHT22;43683;48.650;9.290;2024-01-07T14:45:38;1.20;92.40
57857;DHT22;43683;48.650;9.290;2024-01-07T14:48:04;1.20;92.50
57857;DHT22;43683;48.650;9.290;2024-01-07T14:50:30;1.20;92.50
57857;DHT22;43683;48.650;9.290;2024-01-07T14:52:56;1.20;92.60
57857;DHT22;43683;48.650;9.290;2024-01-07T14:55:21;1.10;92.60
57857;DHT22;43683;48.650;9.290;2024-01-07T14:57:47;1.10;92.70
57857;DHT22;43683;48.650;9.290;2024-01-07T15:00:12;1.10;92.70
57857;DHT22;43683;48.650;9.290;2024-01-07T15:02:39;1.00;92.70
57857;DHT22;43683;48.650;9.290;2024-01-07T15:05:05;1.10;92.70
57857;DHT22;43683;48.650;9.290;2024-01-07T15:07:31;1.10;92.80
57857;DHT22;43683;48.650;9.290;2024-01-07T15:09:56;1.00;92.80
57857;DHT22;43683;48.650;9.290;2024-01-07T15:12:23;1.00;92.90
57857;DHT22;43683;48.650;9.290;2024-01-07T15:14:49;1.00;92.90
57857;DHT22;43683;48.650;9.290;2024-01-07T15:17:14;1.00;93.00
57857;DHT22;43683;48.650;9.290;2024-01-07T15:19:45;0.90;93.00
57857;DHT22;43683;48.650;9.290;2024-01-07T15:22:11;0.90;93.00
57857;DHT22;43683;48.650;9.290;2024-01-07T15:24:38;0.90;93.10
57857;DHT22;43683;48.650;9.290;2024-01-07T15:27:04;0.90;93.10
57857;DHT22;43683;48.650;9.290;2024-01-07T15:29:29;0.80;93.20
57857;DHT22;43683;48.650;9.290;2024-01-07T15:31:55;0.80;93.20
57857;DHT22;43683;48.650;9.290;2024-01-07T15:34:21;0.70;93.30
57857;DHT22;43683;48.650;9.290;2024-01-07T15:36:46;0.70;93.40
57857;DHT22;43683;48.650;9.290;2024-01-07T15:39:12;0.60;93.40